createdAt,value
2022-07-29T00:00:21.455Z,101037.75
2022-07-29T00:03:02.398Z,101035.75
2022-07-29T00:05:51.070Z,101042.50
2022-07-29T00:08:33.040Z,101039.81
2022-07-29T00:11:20.376Z,101033.94
2022-07-29T00:14:01.313Z,101035.78
2022-07-29T00:16:51.225Z,101037.06
2022-07-29T00:19:32.670Z,101027.19
2022-07-29T00:22:19.411Z,101027.63
2022-07-29T00:25:00.321Z,101031.38
2022-07-29T00:27:51.747Z,101039.25
2022-07-29T00:30:33.095Z,101032.13
2022-07-29T00:33:21.777Z,101031.44
2022-07-29T00:36:04.467Z,101026.09
2022-07-29T00:38:52.537Z,101031.41
2022-07-29T00:41:46.687Z,101028.75
2022-07-29T00:44:34.412Z,101023.50
2022-07-29T00:47:16.311Z,101015.59
2022-07-29T00:50:04.443Z,101012.88
2022-07-29T00:52:48.444Z,101016.34
2022-07-29T00:55:37.472Z,101010.75
2022-07-29T00:58:23.148Z,101005.84
2022-07-29T01:01:14.866Z,101009.34
2022-07-29T01:03:55.808Z,101009.88
2022-07-29T01:06:42.428Z,101007.41
2022-07-29T01:09:42.121Z,101003.16
2022-07-29T01:12:37.587Z,101006.19
2022-07-29T01:15:19.693Z,100994.84
2022-07-29T01:18:27.451Z,101000.72
2022-07-29T01:21:24.107Z,101000.00
2022-07-29T01:24:36.615Z,100996.72
2022-07-29T01:27:45.447Z,101001.50
2022-07-29T01:30:34.455Z,100992.97
2022-07-29T01:33:41.108Z,100996.69
2022-07-29T01:36:37.646Z,100988.66
2022-07-29T01:39:24.352Z,100991.38
2022-07-29T01:42:29.339Z,100991.41
2022-07-29T01:45:24.723Z,100998.28
2022-07-29T01:48:10.832Z,100996.00
2022-07-29T01:51:26.363Z,100998.59
2022-07-29T01:54:11.514Z,101005.59
2022-07-29T01:57:01.343Z,100995.19
2022-07-29T01:59:47.305Z,101000.34
2022-07-29T02:02:37.391Z,100998.41
2022-07-29T02:05:28.517Z,101007.34
2022-07-29T02:08:18.145Z,101009.38
2022-07-29T02:11:02.652Z,101013.66
2022-07-29T02:13:52.352Z,101002.03
2022-07-29T02:16:36.657Z,101006.56
2022-07-29T02:19:26.374Z,101010.19
2022-07-29T02:22:08.901Z,101008.13
2022-07-29T02:24:59.383Z,101007.88
2022-07-29T02:27:42.470Z,101004.34
2022-07-29T02:30:32.143Z,101017.03
2022-07-29T02:33:16.664Z,101005.31
2022-07-29T02:36:07.143Z,101009.91
2022-07-29T02:38:51.477Z,100998.38
2022-07-29T02:42:07.128Z,101008.75
2022-07-29T02:44:56.136Z,101006.06
2022-07-29T02:47:58.501Z,101009.72
2022-07-29T02:50:56.515Z,101007.97
2022-07-29T02:53:46.661Z,101002.38
2022-07-29T02:56:39.907Z,101009.72
2022-07-29T02:59:25.737Z,101014.28
2022-07-29T03:02:15.991Z,101010.50
2022-07-29T03:04:58.971Z,101010.28
2022-07-29T03:07:52.801Z,101014.38
2022-07-29T03:10:34.915Z,101011.50
2022-07-29T03:13:26.510Z,101014.88
2022-07-29T03:16:08.481Z,101009.34
2022-07-29T03:18:56.894Z,101010.16
2022-07-29T03:21:37.433Z,101006.97
2022-07-29T03:24:35.546Z,101000.16
2022-07-29T03:27:16.427Z,101005.03
2022-07-29T03:30:05.725Z,101014.53
2022-07-29T03:32:49.436Z,101013.03
2022-07-29T03:35:40.517Z,101014.19
2022-07-29T03:38:21.401Z,101016.28
2022-07-29T03:41:22.710Z,101023.84
2022-07-29T03:44:10.417Z,101024.25
2022-07-29T03:46:56.522Z,101018.13
2022-07-29T03:49:47.443Z,101021.63
2022-07-29T03:52:30.053Z,101021.56
2022-07-29T03:55:17.441Z,101009.94
2022-07-29T03:57:58.732Z,101010.53
2022-07-29T04:00:47.552Z,101021.25
2022-07-29T04:03:30.446Z,101019.78
2022-07-29T04:06:19.814Z,101024.06
2022-07-29T04:09:01.533Z,101017.34
2022-07-29T04:12:02.013Z,101028.13
2022-07-29T04:14:44.844Z,101031.16
2022-07-29T04:17:32.493Z,101025.59
2022-07-29T04:20:14.396Z,101037.03
2022-07-29T04:23:08.175Z,101025.22
2022-07-29T04:25:51.059Z,101026.72
2022-07-29T04:28:37.433Z,101023.13
2022-07-29T04:31:23.870Z,101026.72
2022-07-29T04:34:12.701Z,101024.31
2022-07-29T04:36:56.627Z,101024.28
2022-07-29T04:39:44.220Z,101023.13
2022-07-29T04:42:44.001Z,101024.53
2022-07-29T04:45:33.830Z,101027.56
2022-07-29T04:48:15.619Z,101030.38
2022-07-29T04:51:03.469Z,101033.19
2022-07-29T04:53:44.592Z,101037.34
2022-07-29T04:56:32.455Z,101035.59
2022-07-29T04:59:14.553Z,101029.84
2022-07-29T05:02:02.275Z,101033.41
2022-07-29T05:04:43.648Z,101032.59
2022-07-29T05:07:31.470Z,101034.88
2022-07-29T05:10:15.629Z,101043.47
2022-07-29T05:13:03.028Z,101037.94
2022-07-29T05:15:44.606Z,101040.41
2022-07-29T05:18:32.464Z,101044.75
2022-07-29T05:21:14.509Z,101045.88
2022-07-29T05:24:01.473Z,101041.66
2022-07-29T05:26:42.593Z,101050.91
2022-07-29T05:29:42.614Z,101049.97
2022-07-29T05:32:29.889Z,101051.34
2022-07-29T05:35:16.459Z,101054.13
2022-07-29T05:37:58.608Z,101056.75
2022-07-29T05:40:49.606Z,101049.69
2022-07-29T05:43:38.739Z,101061.66
2022-07-29T05:46:19.952Z,101064.31
2022-07-29T05:49:07.622Z,101064.25
2022-07-29T05:51:48.508Z,101062.88
2022-07-29T05:54:38.116Z,101068.38
2022-07-29T05:57:25.537Z,101070.88
2022-07-29T06:00:13.621Z,101073.56
2022-07-29T06:02:54.896Z,101077.44
2022-07-29T06:05:43.494Z,101068.03
2022-07-29T06:08:24.624Z,101078.75
2022-07-29T06:11:12.645Z,101078.66
2022-07-29T06:13:56.222Z,101083.66
2022-07-29T06:16:48.700Z,101082.72
2022-07-29T06:19:29.525Z,101084.31
2022-07-29T06:22:18.632Z,101084.25
2022-07-29T06:24:59.505Z,101084.44
2022-07-29T06:27:49.412Z,101082.69
2022-07-29T06:30:30.606Z,101081.53
2022-07-29T06:33:24.661Z,101079.88
2022-07-29T06:36:05.544Z,101086.31
2022-07-29T06:38:57.103Z,101091.88
2022-07-29T06:41:50.538Z,101092.13
2022-07-29T06:44:38.881Z,101092.00
2022-07-29T06:47:19.545Z,101091.88
2022-07-29T06:50:12.836Z,101088.69
2022-07-29T06:52:53.929Z,101091.91
2022-07-29T06:55:43.385Z,101098.91
2022-07-29T06:58:25.940Z,101092.91
2022-07-29T07:01:15.471Z,101105.50
2022-07-29T07:03:56.807Z,101106.13
2022-07-29T07:06:45.245Z,101104.59
2022-07-29T07:09:40.362Z,101106.84
2022-07-29T07:12:27.991Z,101107.66
2022-07-29T07:15:10.872Z,101112.25
2022-07-29T07:17:58.879Z,101110.38
2022-07-29T07:20:43.019Z,101113.16
2022-07-29T07:23:34.386Z,101106.56
2022-07-29T07:26:16.419Z,101111.00
2022-07-29T07:29:04.707Z,101114.94
2022-07-29T07:31:46.353Z,101123.88
2022-07-29T07:34:34.639Z,101130.13
2022-07-29T07:37:15.564Z,101132.78
2022-07-29T07:40:03.663Z,101131.84
2022-07-29T07:43:06.675Z,101138.41
2022-07-29T07:46:02.200Z,101144.78
2022-07-29T07:48:42.616Z,101143.34
2022-07-29T07:51:29.725Z,101144.09
2022-07-29T07:54:11.347Z,101142.16
2022-07-29T07:57:01.663Z,101148.03
2022-07-29T07:59:53.201Z,101147.56
2022-07-29T08:02:40.813Z,101154.91
2022-07-29T08:05:24.575Z,101151.84
2022-07-29T08:08:15.496Z,101159.78
2022-07-29T08:11:09.077Z,101158.47
2022-07-29T08:13:57.695Z,101152.19
2022-07-29T08:16:38.610Z,101155.94
2022-07-29T08:19:28.238Z,101160.25
2022-07-29T08:22:09.573Z,101158.44
2022-07-29T08:24:57.270Z,101162.94
2022-07-29T08:27:44.030Z,101163.31
2022-07-29T08:30:33.723Z,101173.75
2022-07-29T08:33:14.591Z,101184.56
2022-07-29T08:36:02.693Z,101185.41
2022-07-29T08:38:43.972Z,101173.13
2022-07-29T08:41:38.574Z,101181.88
2022-07-29T08:44:30.611Z,101180.97
2022-07-29T08:47:13.715Z,101176.00
2022-07-29T08:50:00.704Z,101177.44
2022-07-29T08:52:45.966Z,101178.72
2022-07-29T08:55:34.692Z,101184.34
2022-07-29T08:58:16.722Z,101186.09
2022-07-29T09:01:06.890Z,101188.03
2022-07-29T09:03:51.779Z,101190.19
2022-07-29T09:06:47.631Z,101188.84
2022-07-29T09:09:29.711Z,101184.72
2022-07-29T09:12:29.072Z,101188.38
2022-07-29T09:15:13.029Z,101188.75
2022-07-29T09:18:00.713Z,101193.38
2022-07-29T09:21:00.251Z,101187.81
2022-07-29T09:23:49.611Z,101186.16
2022-07-29T09:26:37.206Z,101189.25
2022-07-29T09:29:25.790Z,101192.78
2022-07-29T09:32:07.852Z,101199.28
2022-07-29T09:34:58.415Z,101197.00
2022-07-29T09:37:41.901Z,101203.00
2022-07-29T09:40:36.898Z,101196.47
2022-07-29T09:43:24.748Z,101200.28
2022-07-29T09:46:19.042Z,101201.44
2022-07-29T09:49:21.546Z,101201.94
2022-07-29T09:52:14.649Z,101200.69
2022-07-29T09:55:18.110Z,101199.75
2022-07-29T10:01:11.497Z,101208.38
2022-07-29T10:04:00.863Z,101202.97
2022-07-29T10:07:09.802Z,101201.53
2022-07-29T10:10:02.670Z,101205.34
2022-07-29T10:13:08.017Z,101207.44
2022-07-29T10:15:53.702Z,101201.16
2022-07-29T10:18:42.778Z,101208.22
2022-07-29T10:21:35.405Z,101203.88
2022-07-29T10:24:23.825Z,101208.44
2022-07-29T10:27:08.668Z,101209.06
2022-07-29T10:29:55.748Z,101205.72
2022-07-29T10:33:04.934Z,101208.63
2022-07-29T10:36:16.230Z,101216.38
2022-07-29T10:39:16.872Z,101205.13
2022-07-29T10:42:34.456Z,101208.84
2022-07-29T10:45:25.740Z,101211.91
2022-07-29T10:48:15.534Z,101219.81
2022-07-29T10:51:12.044Z,101215.97
2022-07-29T10:54:00.843Z,101217.31
2022-07-29T10:56:52.315Z,101221.25
2022-07-29T10:59:36.207Z,101215.47
2022-07-29T11:02:43.564Z,101211.81
2022-07-29T11:05:32.049Z,101213.81
2022-07-29T11:08:31.690Z,101221.59
2022-07-29T11:11:29.734Z,101217.84
2022-07-29T11:14:16.691Z,101211.44
2022-07-29T11:17:14.036Z,101210.16
2022-07-29T11:20:39.705Z,101215.69
2022-07-29T11:23:43.438Z,101211.75
2022-07-29T11:26:35.275Z,101205.09
2022-07-29T11:29:28.829Z,101206.41
2022-07-29T11:32:24.167Z,101210.63
2022-07-29T11:35:38.316Z,101197.81
2022-07-29T11:38:32.321Z,101206.78
2022-07-29T11:41:25.364Z,101211.59
2022-07-29T11:44:14.480Z,101210.63
2022-07-29T11:46:59.674Z,101208.03
2022-07-29T11:49:53.292Z,101206.44
2022-07-29T11:52:50.062Z,101210.94
2022-07-29T11:55:51.141Z,101201.75
2022-07-29T11:58:33.008Z,101209.72
2022-07-29T12:01:24.782Z,101216.81
2022-07-29T12:04:14.993Z,101211.97
2022-07-29T12:09:46.286Z,101202.63
2022-07-29T12:12:32.724Z,101205.22
2022-07-29T12:15:39.499Z,101213.97
2022-07-29T12:18:32.753Z,101205.88
2022-07-29T12:21:14.407Z,101203.28
2022-07-29T12:24:09.075Z,101206.22
2022-07-29T12:27:03.842Z,101207.81
2022-07-29T12:30:11.233Z,101214.19
2022-07-29T12:33:00.357Z,101209.78
2022-07-29T12:36:03.434Z,101211.50
2022-07-29T12:38:48.901Z,101216.38
2022-07-29T12:41:38.944Z,101218.25
2022-07-29T12:44:28.392Z,101211.97
2022-07-29T12:47:12.300Z,101210.63
2022-07-29T12:50:24.503Z,101218.31
2022-07-29T12:53:20.183Z,101205.03
2022-07-29T12:56:26.687Z,101201.44
2022-07-29T12:59:23.739Z,101208.03
2022-07-29T13:02:12.933Z,101216.56
2022-07-29T13:05:04.753Z,101217.41
2022-07-29T13:07:54.938Z,101221.06
2022-07-29T13:10:42.844Z,101212.66
2022-07-29T13:13:30.897Z,101211.69
2022-07-29T13:16:18.072Z,101205.13
2022-07-29T13:19:18.531Z,101204.28
2022-07-29T13:22:00.965Z,101212.50
2022-07-29T13:25:08.861Z,101198.59
2022-07-29T13:27:49.784Z,101201.47
2022-07-29T13:30:44.566Z,101207.97
2022-07-29T13:33:25.874Z,101206.66
2022-07-29T13:36:15.905Z,101200.63
2022-07-29T13:38:56.812Z,101202.34
2022-07-29T13:41:45.682Z,101209.69
2022-07-29T13:44:32.780Z,101208.72
2022-07-29T13:47:15.294Z,101205.38
2022-07-29T13:50:02.797Z,101210.03
2022-07-29T13:52:45.020Z,101211.19
2022-07-29T13:55:34.302Z,101214.84
2022-07-29T13:58:15.051Z,101212.75
2022-07-29T14:01:09.215Z,101211.16
2022-07-29T14:03:50.529Z,101217.72
2022-07-29T14:06:38.787Z,101226.91
2022-07-29T14:09:21.897Z,101212.44
2022-07-29T14:12:09.812Z,101210.81
2022-07-29T14:14:51.227Z,101209.75
2022-07-29T14:17:38.816Z,101215.28
2022-07-29T14:20:21.933Z,101213.03
2022-07-29T14:23:09.156Z,101207.03
2022-07-29T14:25:50.716Z,101201.44
2022-07-29T14:28:41.842Z,101196.81
2022-07-29T14:31:23.011Z,101192.84
2022-07-29T14:34:09.805Z,101196.31
2022-07-29T14:36:51.328Z,101199.09
2022-07-29T14:39:43.060Z,101200.38
2022-07-29T14:42:39.809Z,101196.72
2022-07-29T14:48:29.712Z,101210.72
2022-07-29T14:51:17.851Z,101196.19
2022-07-29T14:53:59.924Z,101199.41
2022-07-29T14:56:47.196Z,101192.44
2022-07-29T14:59:29.772Z,101206.31
2022-07-29T15:02:17.860Z,101203.72
2022-07-29T15:04:59.946Z,101194.78
2022-07-29T15:07:48.201Z,101203.94
2022-07-29T15:10:29.944Z,101196.72
2022-07-29T15:13:18.660Z,101198.97
2022-07-29T15:16:00.413Z,101198.25
2022-07-29T15:18:47.854Z,101193.72
2022-07-29T15:21:30.687Z,101197.69
2022-07-29T15:24:19.963Z,101197.19
2022-07-29T15:27:01.015Z,101205.28
2022-07-29T15:29:48.845Z,101206.03
2022-07-29T15:32:30.869Z,101211.72
2022-07-29T15:35:17.864Z,101207.31
2022-07-29T15:37:59.050Z,101206.44
2022-07-29T15:40:50.851Z,101202.53
2022-07-29T15:43:46.877Z,101205.34
2022-07-29T15:46:51.844Z,101207.88
2022-07-29T15:49:48.368Z,101205.47
2022-07-29T15:52:37.943Z,101211.28
2022-07-29T15:55:24.360Z,101194.50
2022-07-29T15:58:14.264Z,101194.06
2022-07-29T16:00:55.025Z,101195.13
2022-07-29T16:03:46.209Z,101188.84
2022-07-29T16:06:29.108Z,101199.81
2022-07-29T16:09:15.942Z,101206.88
2022-07-29T16:11:57.027Z,101194.03
2022-07-29T16:14:45.259Z,101204.31
2022-07-29T16:17:27.903Z,101198.03
2022-07-29T16:20:16.248Z,101195.63
2022-07-29T16:22:59.001Z,101201.72
2022-07-29T16:26:01.672Z,101203.09
2022-07-29T16:28:45.264Z,101193.81
2022-07-29T16:31:37.957Z,101197.81
2022-07-29T16:34:19.129Z,101198.78
2022-07-29T16:37:06.907Z,101195.09
2022-07-29T16:39:50.088Z,101196.41
2022-07-29T16:42:47.376Z,101194.25
2022-07-29T16:45:45.673Z,101212.44
2022-07-29T16:48:27.950Z,101206.09
2022-07-29T16:51:16.820Z,101200.50
2022-07-29T16:54:01.552Z,101203.66
2022-07-29T16:56:48.025Z,101211.44
2022-07-29T16:59:28.919Z,101216.63
2022-07-29T17:02:18.129Z,101208.94
2022-07-29T17:04:58.896Z,101214.41
2022-07-29T17:07:47.797Z,101212.09
2022-07-29T17:10:28.895Z,101212.38
2022-07-29T17:13:17.413Z,101222.38
2022-07-29T17:16:00.621Z,101225.22
2022-07-29T17:18:48.211Z,101220.47
2022-07-29T17:21:31.459Z,101229.22
2022-07-29T17:24:18.247Z,101229.56
2022-07-29T17:27:01.255Z,101233.13
2022-07-29T17:29:51.016Z,101234.94
2022-07-29T17:32:35.993Z,101233.13
2022-07-29T17:35:45.596Z,101230.34
2022-07-29T17:38:26.299Z,101238.47
2022-07-29T17:41:15.039Z,101240.63
2022-07-29T17:44:08.913Z,101242.78
2022-07-29T17:46:59.353Z,101243.94
2022-07-29T17:49:40.940Z,101253.09
2022-07-29T17:52:28.061Z,101255.09
2022-07-29T17:55:09.327Z,101261.91
2022-07-29T17:57:59.990Z,101256.94
2022-07-29T18:00:41.348Z,101267.63
2022-07-29T18:03:31.282Z,101263.75
2022-07-29T18:06:13.329Z,101275.69
2022-07-29T18:09:01.839Z,101279.97
2022-07-29T18:11:45.914Z,101285.81
2022-07-29T18:14:33.935Z,101285.19
2022-07-29T18:17:16.311Z,101293.41
2022-07-29T18:20:03.665Z,101301.22
2022-07-29T18:22:44.936Z,101293.59
2022-07-29T18:25:33.080Z,101304.72
2022-07-29T18:28:15.346Z,101306.78
2022-07-29T18:31:07.040Z,101310.59
2022-07-29T18:33:48.980Z,101309.47
2022-07-29T18:36:37.068Z,101319.38
2022-07-29T18:39:21.179Z,101324.59
2022-07-29T18:42:11.509Z,101312.38
2022-07-29T18:44:58.319Z,101306.84
2022-07-29T18:47:40.913Z,101303.88
2022-07-29T18:50:30.786Z,101309.31
2022-07-29T18:53:16.192Z,101306.94
2022-07-29T18:56:03.999Z,101311.56
2022-07-29T18:58:45.105Z,101309.69
2022-07-29T19:01:33.618Z,101313.59
2022-07-29T19:04:15.137Z,101318.72
2022-07-29T19:07:02.994Z,101315.47
2022-07-29T19:09:49.547Z,101318.31
2022-07-29T19:12:38.382Z,101318.88
2022-07-29T19:15:20.812Z,101321.06
2022-07-29T19:18:11.793Z,101321.84
2022-07-29T19:20:53.770Z,101325.38
2022-07-29T19:26:48.243Z,101325.44
2022-07-29T19:29:35.798Z,101332.69
2022-07-29T19:32:24.948Z,101334.63
2022-07-29T19:35:31.986Z,101342.13
2022-07-29T19:38:13.730Z,101349.78
2022-07-29T19:41:01.762Z,101354.56
2022-07-29T19:43:53.114Z,101357.75
2022-07-29T19:46:36.060Z,101365.69
2022-07-29T19:49:24.802Z,101362.34
2022-07-29T19:52:06.382Z,101378.25
2022-07-29T19:54:54.158Z,101384.56
2022-07-29T19:57:40.692Z,101381.50
2022-07-29T20:00:29.266Z,101389.84
2022-07-29T20:03:12.067Z,101394.09
2022-07-29T20:06:00.198Z,101389.78
2022-07-29T20:08:41.008Z,101397.81
2022-07-29T20:11:30.970Z,101400.72
2022-07-29T20:14:12.013Z,101402.53
2022-07-29T20:17:00.499Z,101411.66
2022-07-29T20:19:41.029Z,101408.00
2022-07-29T20:22:30.079Z,101417.91
2022-07-29T20:25:13.048Z,101416.34
2022-07-29T20:28:01.108Z,101417.25
2022-07-29T20:30:42.428Z,101424.03
2022-07-29T20:33:31.576Z,101433.66
2022-07-29T20:36:12.050Z,101433.16
2022-07-29T20:39:00.132Z,101435.53
2022-07-29T20:41:41.849Z,101441.31
2022-07-29T20:44:34.605Z,101448.22
2022-07-29T20:47:16.424Z,101443.25
2022-07-29T20:50:03.143Z,101455.19
2022-07-29T20:52:46.044Z,101464.13
2022-07-29T20:55:35.248Z,101466.22
2022-07-29T20:58:16.441Z,101466.16
2022-07-29T21:01:03.347Z,101469.47
2022-07-29T21:03:44.073Z,101466.38
2022-07-29T21:06:31.183Z,101471.06
2022-07-29T21:09:13.438Z,101473.69
2022-07-29T21:12:02.228Z,101473.00
2022-07-29T21:14:43.434Z,101468.88
2022-07-29T21:17:35.882Z,101475.50
2022-07-29T21:20:17.065Z,101469.94
2022-07-29T21:23:04.181Z,101460.94
2022-07-29T21:25:45.847Z,101462.69
2022-07-29T21:28:43.865Z,101468.09
2022-07-29T21:31:25.166Z,101466.53
2022-07-29T21:34:14.558Z,101472.13
2022-07-29T21:36:57.589Z,101489.06
2022-07-29T21:39:45.184Z,101487.16
2022-07-29T21:42:27.479Z,101497.91
2022-07-29T21:45:16.183Z,101503.34
2022-07-29T21:47:57.084Z,101495.59
2022-07-29T21:50:45.216Z,101494.91
2022-07-29T21:53:27.096Z,101490.66
2022-07-29T21:56:15.031Z,101497.28
2022-07-29T21:58:56.866Z,101493.13
2022-07-29T22:01:46.130Z,101485.44
2022-07-29T22:04:27.120Z,101484.97
2022-07-29T22:07:14.378Z,101499.09
2022-07-29T22:09:55.105Z,101495.03
2022-07-29T22:12:45.265Z,101491.84
2022-07-29T22:15:26.120Z,101487.50
2022-07-29T22:18:14.198Z,101487.81
2022-07-29T22:21:02.111Z,101486.19
2022-07-29T22:23:52.865Z,101488.94
2022-07-29T22:26:35.498Z,101487.81
2022-07-29T22:29:22.201Z,101482.88
2022-07-29T22:32:03.092Z,101492.78
2022-07-29T22:34:50.277Z,101508.81
2022-07-29T22:37:31.089Z,101507.09
2022-07-29T22:40:19.221Z,101505.25
2022-07-29T22:43:00.916Z,101499.09
2022-07-29T22:45:50.043Z,101506.28
2022-07-29T22:48:34.104Z,101506.63
2022-07-29T22:51:24.201Z,101512.00
2022-07-29T22:54:05.114Z,101511.22
2022-07-29T22:56:54.265Z,101510.41
2022-07-29T22:59:35.123Z,101509.91
2022-07-29T23:02:23.219Z,101506.38
2022-07-29T23:05:05.129Z,101508.41
2022-07-29T23:07:55.392Z,101512.06
2022-07-29T23:10:36.323Z,101512.28
2022-07-29T23:13:23.246Z,101522.94
2022-07-29T23:16:04.131Z,101522.50
2022-07-29T23:18:53.104Z,101531.69
2022-07-29T23:21:34.143Z,101538.56
2022-07-29T23:24:21.225Z,101533.28
2022-07-29T23:27:02.958Z,101541.19
2022-07-29T23:29:52.267Z,101539.59
2022-07-29T23:32:33.545Z,101535.41
2022-07-29T23:35:20.254Z,101541.56
2022-07-29T23:38:01.148Z,101535.41
2022-07-29T23:40:53.324Z,101531.97
2022-07-29T23:43:47.201Z,101523.34
2022-07-29T23:46:35.281Z,101529.69
2022-07-29T23:49:17.512Z,101531.50
2022-07-29T23:52:05.297Z,101534.88
2022-07-29T23:54:47.516Z,101541.09
2022-07-29T23:57:34.251Z,101536.97
